Time;durP1;ratioP1;P1;durP2;ratioP2;P2;SDS_P1;SDS_P2;PMS_P1;PMS_P2;Temp;Humidity;BMP_temperature;BMP_pressure;BME280_temperature;BME280_humidity;BME280_pressure;Samples;Min_cycle;Max_cycle;Signal;HPM_P1;HPM_P2
2023/12/17 00:00:39;;;;;;;9.88;3.97;;;;;;;;;;5788003;28;20055;-79
2023/12/17 00:03:30;;;;;;;7.88;3.95;;;;;;;;;;5787967;28;20191;-79
2023/12/17 00:06:20;;;;;;;7.00;3.95;;;;;;;;;;5788047;28;20058;-79
2023/12/17 00:09:11;;;;;;;15.45;4.63;;;;;;;;;;5787970;28;20082;-79
2023/12/17 00:12:03;;;;;;;7.97;3.55;;;;;;;;;;5787652;28;20066;-79
2023/12/17 00:14:53;;;;;;;7.53;3.72;;;;;;;;;;5773448;28;20130;-79
2023/12/17 00:17:44;;;;;;;17.25;6.03;;;;;;;;;;5788155;28;20122;-79
2023/12/17 00:20:35;;;;;;;5.95;2.47;;;;;;;;;;5773208;28;20044;-79
2023/12/17 00:23:26;;;;;;;3.40;3.10;;;;;;;;;;5787602;28;20058;-79
2023/12/17 00:26:17;;;;;;;2.30;2.10;;;;;;;;;;5772925;28;20441;-79
2023/12/17 00:29:07;;;;;;;3.83;3.08;;;;;;;;;;5787556;28;20421;-79
2023/12/17 00:31:58;;;;;;;6.65;4.47;;;;;;;;;;5771667;28;20441;-79
2023/12/17 00:34:51;;;;;;;6.40;3.72;;;;;;;;;;5772947;28;20047;-79
2023/12/17 00:37:42;;;;;;;3.20;2.90;;;;;;;;;;5787226;28;20050;-79
2023/12/17 00:40:32;;;;;;;2.67;2.47;;;;;;;;;;5787083;28;20047;-79
2023/12/17 00:43:23;;;;;;;2.35;2.15;;;;;;;;;;5787026;28;20486;-79
2023/12/17 00:46:14;;;;;;;4.15;3.15;;;;;;;;;;5772316;28;20070;-79
2023/12/17 00:49:05;;;;;;;6.80;4.57;;;;;;;;;;5772467;28;20517;-79
2023/12/17 00:51:56;;;;;;;2.72;2.53;;;;;;;;;;5786449;28;20394;-79
2023/12/17 00:54:46;;;;;;;7.20;3.50;;;;;;;;;;5772246;28;20070;-79
2023/12/17 00:57:37;;;;;;;3.05;2.13;;;;;;;;;;5786861;28;20394;-79
2023/12/17 01:00:28;;;;;;;14.55;4.85;;;;;;;;;;5786621;28;20043;-79
2023/12/17 01:03:19;;;;;;;4.47;2.97;;;;;;;;;;5794913;28;20181;-80
2023/12/17 01:06:10;;;;;;;7.13;3.65;;;;;;;;;;5770808;28;20054;-79
2023/12/17 01:09:01;;;;;;;11.88;3.72;;;;;;;;;;5770685;28;20059;-79
2023/12/17 01:11:52;;;;;;;4.65;2.78;;;;;;;;;;5771168;28;20047;-79
2023/12/17 01:14:42;;;;;;;5.22;3.28;;;;;;;;;;5770496;28;20599;-79
2023/12/17 01:17:33;;;;;;;4.80;1.83;;;;;;;;;;5770553;28;20051;-79
2023/12/17 01:20:24;;;;;;;8.18;2.90;;;;;;;;;;5771938;28;20379;-79
2023/12/17 01:23:15;;;;;;;6.10;3.03;;;;;;;;;;5770336;28;20047;-79
2023/12/17 01:26:06;;;;;;;5.38;2.08;;;;;;;;;;5770253;28;20058;-78
2023/12/17 01:28:57;;;;;;;5.82;3.35;;;;;;;;;;5755311;28;20134;-79
2023/12/17 01:31:48;;;;;;;5.90;3.53;;;;;;;;;;5771735;28;20043;-79
2023/12/17 01:34:39;;;;;;;4.00;3.25;;;;;;;;;;5770236;28;20162;-79
2023/12/17 01:37:29;;;;;;;3.88;2.42;;;;;;;;;;5770352;28;20047;-79
2023/12/17 01:40:20;;;;;;;2.67;2.47;;;;;;;;;;5770236;28;20058;-79
2023/12/17 01:43:11;;;;;;;4.45;2.88;;;;;;;;;;5786267;28;20051;-79
2023/12/17 01:46:02;;;;;;;2.83;2.35;;;;;;;;;;5770200;28;20055;-79
2023/12/17 01:48:53;;;;;;;3.10;2.20;;;;;;;;;;5786522;28;20054;-80
2023/12/17 01:51:44;;;;;;;4.07;2.63;;;;;;;;;;5769966;28;20043;-79
2023/12/17 01:54:36;;;;;;;3.10;2.33;;;;;;;;;;5769883;28;20059;-79
2023/12/17 01:57:27;;;;;;;6.82;4.05;;;;;;;;;;5771445;28;20051;-79
2023/12/17 02:00:18;;;;;;;2.25;1.73;;;;;;;;;;5770339;28;20113;-79
2023/12/17 02:03:09;;;;;;;2.20;1.88;;;;;;;;;;5771076;28;20465;-79
2023/12/17 02:06:00;;;;;;;2.20;1.95;;;;;;;;;;5774680;28;20449;-79
2023/12/17 02:08:51;;;;;;;6.50;3.17;;;;;;;;;;5775274;28;20486;-79
2023/12/17 02:11:42;;;;;;;5.03;2.55;;;;;;;;;;5774665;28;20142;-79
2023/12/17 02:14:33;;;;;;;6.03;3.15;;;;;;;;;;5775668;28;20174;-79
2023/12/17 02:17:28;;;;;;;3.35;2.92;;;;;;;;;;5774216;28;20051;-79
2023/12/17 02:20:19;;;;;;;1.63;1.52;;;;;;;;;;5790457;28;20137;-79
2023/12/17 02:23:11;;;;;;;5.65;2.97;;;;;;;;;;5790302;28;20047;-79
2023/12/17 02:26:03;;;;;;;6.97;2.65;;;;;;;;;;5774126;28;20100;-79
2023/12/17 02:28:54;;;;;;;3.15;2.65;;;;;;;;;;5775683;28;20055;-79
2023/12/17 02:31:44;;;;;;;5.68;2.80;;;;;;;;;;5773821;28;20039;-79
2023/12/17 02:34:35;;;;;;;3.22;2.92;;;;;;;;;;5757978;28;20431;-79
2023/12/17 02:37:26;;;;;;;2.78;2.55;;;;;;;;;;5773773;28;20047;-79
2023/12/17 02:40:17;;;;;;;3.70;2.65;;;;;;;;;;5774791;28;20047;-79
2023/12/17 02:43:07;;;;;;;4.32;3.20;;;;;;;;;;5757640;28;20047;-79
2023/12/17 02:45:58;;;;;;;6.75;1.70;;;;;;;;;;5790079;28;20047;-79
2023/12/17 02:48:49;;;;;;;3.40;2.72;;;;;;;;;;5773628;28;20047;-79
2023/12/17 02:51:40;;;;;;;3.53;2.58;;;;;;;;;;5774070;28;20047;-79
2023/12/17 02:54:30;;;;;;;3.72;3.15;;;;;;;;;;5789891;28;20051;-79
2023/12/17 02:57:26;;;;;;;8.38;3.65;;;;;;;;;;5789874;28;20051;-79
2023/12/17 03:00:17;;;;;;;7.65;3.58;;;;;;;;;;5773822;28;20449;-79
2023/12/17 03:03:08;;;;;;;4.35;2.60;;;;;;;;;;5773545;28;20051;-79
2023/12/17 03:05:59;;;;;;;2.53;2.33;;;;;;;;;;5775257;28;20051;-79
2023/12/17 03:08:50;;;;;;;6.60;3.03;;;;;;;;;;5773306;28;20051;-79
2023/12/17 03:11:40;;;;;;;1.55;1.45;;;;;;;;;;5789143;28;20053;-79
2023/12/17 03:14:31;;;;;;;3.85;2.45;;;;;;;;;;5772553;28;20110;-79
2023/12/17 03:17:22;;;;;;;3.60;3.15;;;;;;;;;;5774379;28;20051;-79
2023/12/17 03:20:13;;;;;;;2.10;1.90;;;;;;;;;;5773162;28;20365;-79
2023/12/17 03:23:04;;;;;;;3.58;2.85;;;;;;;;;;5773006;28;20143;-79
2023/12/17 03:25:54;;;;;;;6.35;4.40;;;;;;;;;;5773377;28;20131;-79
2023/12/17 03:28:45;;;;;;;10.98;2.92;;;;;;;;;;5773241;28;20058;-79
2023/12/17 03:31:36;;;;;;;6.20;3.90;;;;;;;;;;5789155;28;20043;-79
2023/12/17 03:34:27;;;;;;;3.20;2.70;;;;;;;;;;5789081;28;20043;-79
2023/12/17 03:37:18;;;;;;;3.53;2.63;;;;;;;;;;5772848;28;20102;-79
2023/12/17 03:40:09;;;;;;;2.22;2.05;;;;;;;;;;5773037;28;20086;-79
2023/12/17 03:43:00;;;;;;;2.90;1.98;;;;;;;;;;5773226;28;20533;-79
2023/12/17 03:45:51;;;;;;;2.95;1.95;;;;;;;;;;5772697;28;20358;-79
2023/12/17 03:48:42;;;;;;;4.18;2.33;;;;;;;;;;5772675;28;20047;-79
2023/12/17 03:51:33;;;;;;;2.53;2.22;;;;;;;;;;5773729;28;20051;-79
2023/12/17 03:54:24;;;;;;;8.48;3.17;;;;;;;;;;5772593;28;20047;-79
2023/12/17 03:57:15;;;;;;;4.85;3.08;;;;;;;;;;5773727;28;20126;-79
2023/12/17 04:00:07;;;;;;;2.10;1.77;;;;;;;;;;5772448;28;20478;-79
2023/12/17 04:02:57;;;;;;;2.85;2.35;;;;;;;;;;5788808;28;20507;-79
2023/12/17 04:05:48;;;;;;;1.85;1.75;;;;;;;;;;5772206;28;20541;-79
2023/12/17 04:08:39;;;;;;;4.72;3.15;;;;;;;;;;5772243;28;20051;-79
2023/12/17 04:11:30;;;;;;;10.70;3.15;;;;;;;;;;5787965;28;20047;-79
2023/12/17 04:14:21;;;;;;;5.05;2.65;;;;;;;;;;5772013;28;20055;-79
2023/12/17 04:17:12;;;;;;;9.23;2.85;;;;;;;;;;5773235;28;20047;-78
2023/12/17 04:20:03;;;;;;;3.17;2.10;;;;;;;;;;5773346;28;20058;-79
2023/12/17 04:22:54;;;;;;;8.10;3.08;;;;;;;;;;5773434;28;20059;-79
2023/12/17 04:25:45;;;;;;;3.53;2.72;;;;;;;;;;5787523;28;20047;-79
2023/12/17 04:28:36;;;;;;;6.95;2.95;;;;;;;;;;5770823;28;20098;-79
2023/12/17 04:31:26;;;;;;;5.82;2.97;;;;;;;;;;5772761;28;20489;-79
2023/12/17 04:34:17;;;;;;;3.10;2.80;;;;;;;;;;5771414;28;20047;-79
2023/12/17 04:37:08;;;;;;;4.97;2.03;;;;;;;;;;5771274;28;20057;-79
2023/12/17 04:39:59;;;;;;;2.75;2.30;;;;;;;;;;5773213;28;20051;-78
2023/12/17 04:42:49;;;;;;;8.60;2.40;;;;;;;;;;5787742;28;20046;-79
2023/12/17 04:45:40;;;;;;;3.15;2.33;;;;;;;;;;5770933;28;20054;-79
2023/12/17 04:48:31;;;;;;;6.68;3.47;;;;;;;;;;5772586;28;20047;-79
2023/12/17 04:51:22;;;;;;;6.50;3.03;;;;;;;;;;5786918;28;20047;-79
2023/12/17 04:54:15;;;;;;;5.18;3.13;;;;;;;;;;5772215;28;20058;-79
2023/12/17 04:57:06;;;;;;;7.25;3.00;;;;;;;;;;5772198;28;20062;-79
2023/12/17 05:00:00;;;;;;;2.90;1.92;;;;;;;;;;5771604;28;20054;-79
2023/12/17 05:02:51;;;;;;;3.58;2.60;;;;;;;;;;5772278;28;20043;-79
2023/12/17 05:05:42;;;;;;;12.32;4.20;;;;;;;;;;5770965;28;20596;-79
2023/12/17 05:08:33;;;;;;;4.15;2.53;;;;;;;;;;5771089;28;20489;-79
2023/12/17 05:11:24;;;;;;;6.20;3.17;;;;;;;;;;5770695;28;20054;-79
2023/12/17 05:14:15;;;;;;;4.70;2.85;;;;;;;;;;5772067;28;20464;-79
2023/12/17 05:17:06;;;;;;;2.67;2.25;;;;;;;;;;5771858;28;20058;-79
2023/12/17 05:19:57;;;;;;;7.50;3.38;;;;;;;;;;5787076;28;20498;-79
2023/12/17 05:22:48;;;;;;;4.25;2.75;;;;;;;;;;5770497;28;20039;-79
2023/12/17 05:25:40;;;;;;;3.90;2.72;;;;;;;;;;5770305;28;20051;-79
2023/12/17 05:28:30;;;;;;;2.92;2.20;;;;;;;;;;5754595;28;20086;-79
2023/12/17 05:31:21;;;;;;;12.13;3.42;;;;;;;;;;5786429;28;20406;-79
2023/12/17 05:34:12;;;;;;;3.15;2.42;;;;;;;;;;5786571;28;20493;-79
2023/12/17 05:37:03;;;;;;;3.95;1.80;;;;;;;;;;5771632;28;20178;-79
2023/12/17 05:39:54;;;;;;;6.13;3.15;;;;;;;;;;5770512;28;20188;-79
2023/12/17 05:42:45;;;;;;;5.63;2.90;;;;;;;;;;5770343;28;20043;-79
2023/12/17 05:45:36;;;;;;;5.05;2.30;;;;;;;;;;5769958;28;20047;-79
2023/12/17 05:48:37;;;;;;;2.70;2.50;;;;;;;;;;5784735;28;20062;-79
2023/12/17 05:51:28;;;;;;;3.30;2.45;;;;;;;;;;5770054;28;20043;-79
2023/12/17 05:54:19;;;;;;;2.88;2.28;;;;;;;;;;5786116;28;20051;-79
2023/12/17 05:57:10;;;;;;;6.65;3.67;;;;;;;;;;5780805;28;20051;-79
2023/12/17 06:00:01;;;;;;;6.72;2.33;;;;;;;;;;5770148;28;20055;-79
2023/12/17 06:02:52;;;;;;;3.05;2.33;;;;;;;;;;5770410;28;20047;-79
2023/12/17 06:05:43;;;;;;;7.65;3.03;;;;;;;;;;5754250;28;20051;-79
2023/12/17 06:08:34;;;;;;;2.85;2.10;;;;;;;;;;5771287;28;20490;-79
2023/12/17 06:11:25;;;;;;;2.60;2.40;;;;;;;;;;5769771;28;20050;-79
2023/12/17 06:14:17;;;;;;;4.25;3.13;;;;;;;;;;5771282;28;20055;-79
2023/12/17 06:17:08;;;;;;;2.72;2.53;;;;;;;;;;5769800;28;20417;-79
2023/12/17 06:19:59;;;;;;;6.93;3.17;;;;;;;;;;5770354;28;20055;-79
2023/12/17 06:22:50;;;;;;;8.38;4.45;;;;;;;;;;5770092;28;20044;-79
2023/12/17 06:25:40;;;;;;;2.45;2.25;;;;;;;;;;5785782;28;20054;-79
2023/12/17 06:28:31;;;;;;;2.92;2.28;;;;;;;;;;5771109;28;20057;-79
2023/12/17 06:31:23;;;;;;;8.27;4.55;;;;;;;;;;5771183;28;20051;-79
2023/12/17 06:34:14;;;;;;;5.40;4.82;;;;;;;;;;5785728;28;20051;-79
2023/12/17 06:37:05;;;;;;;16.67;4.75;;;;;;;;;;5785786;28;20061;-79
2023/12/17 06:39:56;;;;;;;3.97;2.60;;;;;;;;;;5770075;28;20051;-79
2023/12/17 06:42:47;;;;;;;5.20;3.05;;;;;;;;;;5785623;28;20528;-79
2023/12/17 06:45:38;;;;;;;5.57;3.00;;;;;;;;;;5769657;28;20050;-79
2023/12/17 06:48:29;;;;;;;11.25;2.97;;;;;;;;;;5769740;28;20058;-79
2023/12/17 06:51:20;;;;;;;4.50;2.35;;;;;;;;;;5773507;28;20051;-79
2023/12/17 06:54:11;;;;;;;2.67;2.47;;;;;;;;;;5774940;28;20055;-79
2023/12/17 06:57:02;;;;;;;2.28;2.08;;;;;;;;;;5774619;28;20051;-79
2023/12/17 06:59:53;;;;;;;6.70;2.25;;;;;;;;;;5774028;28;20385;-79
2023/12/17 07:02:44;;;;;;;6.45;2.80;;;;;;;;;;5773578;28;20075;-79
2023/12/17 07:05:35;;;;;;;6.53;3.88;;;;;;;;;;5773139;28;20516;-79
2023/12/17 07:08:26;;;;;;;2.97;2.70;;;;;;;;;;5773489;28;20047;-79
2023/12/17 07:11:16;;;;;;;8.60;3.10;;;;;;;;;;5789374;28;20052;-79
2023/12/17 07:14:07;;;;;;;3.25;2.58;;;;;;;;;;5773250;28;20742;-79
2023/12/17 07:16:58;;;;;;;3.33;2.97;;;;;;;;;;5773735;28;20418;-79
2023/12/17 07:19:49;;;;;;;3.45;2.47;;;;;;;;;;5773172;28;20086;-78
2023/12/17 07:22:40;;;;;;;4.32;2.47;;;;;;;;;;5772924;28;20130;-79
2023/12/17 07:25:31;;;;;;;6.05;3.58;;;;;;;;;;5773001;28;20047;-79
2023/12/17 07:28:22;;;;;;;2.17;2.05;;;;;;;;;;5773162;28;20398;-79
2023/12/17 07:31:12;;;;;;;3.35;3.10;;;;;;;;;;5773960;28;20085;-79
2023/12/17 07:34:03;;;;;;;6.95;3.88;;;;;;;;;;5772957;28;20054;-79
2023/12/17 07:36:54;;;;;;;4.80;3.70;;;;;;;;;;5773144;28;20061;-79
2023/12/17 07:39:45;;;;;;;6.53;4.15;;;;;;;;;;5773966;28;20047;-79
2023/12/17 07:42:36;;;;;;;5.38;3.00;;;;;;;;;;5788358;28;20055;-79
2023/12/17 07:45:27;;;;;;;5.88;3.40;;;;;;;;;;5788605;28;20047;-79
2023/12/17 07:48:18;;;;;;;4.07;3.63;;;;;;;;;;5772618;28;20047;-79
2023/12/17 07:51:09;;;;;;;7.35;5.50;;;;;;;;;;5772149;28;20118;-79
2023/12/17 07:53:59;;;;;;;7.43;6.05;;;;;;;;;;5772897;28;20050;-79
2023/12/17 07:56:50;;;;;;;7.78;5.70;;;;;;;;;;5773846;28;20167;-79
2023/12/17 07:59:41;;;;;;;20.98;8.70;;;;;;;;;;5773478;28;20047;-78
2023/12/17 08:02:32;;;;;;;5.32;4.38;;;;;;;;;;5787876;28;20415;-79
2023/12/17 08:05:23;;;;;;;10.13;6.00;;;;;;;;;;5772000;28;20494;-79
2023/12/17 08:08:14;;;;;;;15.57;8.38;;;;;;;;;;5771985;28;20047;-79
2023/12/17 08:11:07;;;;;;;4.88;4.38;;;;;;;;;;5787948;28;20052;-79
2023/12/17 08:13:58;;;;;;;6.45;4.38;;;;;;;;;;5773820;28;20047;-79
2023/12/17 08:16:49;;;;;;;5.47;3.13;;;;;;;;;;5771665;28;20054;-79
2023/12/17 08:19:40;;;;;;;19.02;5.57;;;;;;;;;;5771593;28;20054;-79
2023/12/17 08:22:30;;;;;;;5.20;3.10;;;;;;;;;;5771764;28;20051;-78
2023/12/17 08:25:21;;;;;;;3.35;3.03;;;;;;;;;;5771371;28;20051;-79
2023/12/17 08:28:12;;;;;;;8.57;4.53;;;;;;;;;;5773220;28;20055;-79
2023/12/17 08:31:08;;;;;;;8.77;4.88;;;;;;;;;;5771546;28;20057;-79
2023/12/17 08:33:59;;;;;;;14.40;6.93;;;;;;;;;;5772543;28;20501;-79
2023/12/17 08:36:50;;;;;;;9.75;5.05;;;;;;;;;;5772812;28;20178;-79
2023/12/17 08:39:40;;;;;;;9.05;5.82;;;;;;;;;;5772561;28;20051;-79
2023/12/17 08:42:31;;;;;;;10.20;5.13;;;;;;;;;;5771573;28;20051;-79
2023/12/17 08:45:22;;;;;;;4.78;4.15;;;;;;;;;;5787055;28;20054;-79
2023/12/17 08:48:13;;;;;;;5.10;4.35;;;;;;;;;;5771300;28;20512;-80
2023/12/17 08:51:05;;;;;;;8.00;5.35;;;;;;;;;;5786822;28;20416;-79
2023/12/17 08:53:56;;;;;;;6.65;5.55;;;;;;;;;;5771406;28;20133;-79
2023/12/17 08:56:47;;;;;;;16.10;10.82;;;;;;;;;;5770966;28;20076;-79
2023/12/17 08:59:43;;;;;;;6.18;3.65;;;;;;;;;;5786821;28;20068;-79
2023/12/17 09:02:34;;;;;;;3.47;3.17;;;;;;;;;;5786759;28;20047;-79
2023/12/17 09:05:25;;;;;;;6.15;4.57;;;;;;;;;;5770723;28;20494;-79
2023/12/17 09:08:16;;;;;;;5.53;4.45;;;;;;;;;;5770867;28;20074;-79
2023/12/17 09:11:08;;;;;;;5.18;4.40;;;;;;;;;;5770650;28;20082;-79
2023/12/17 09:13:59;;;;;;;4.22;3.83;;;;;;;;;;5770651;28;20047;-78
2023/12/17 09:16:50;;;;;;;8.77;4.97;;;;;;;;;;5772076;28;20051;-79
2023/12/17 09:19:41;;;;;;;10.20;5.75;;;;;;;;;;5770413;28;20068;-79
2023/12/17 09:22:32;;;;;;;6.57;4.95;;;;;;;;;;5770480;28;20050;-79
2023/12/17 09:25:23;;;;;;;7.18;5.18;;;;;;;;;;5786570;28;20416;-79
2023/12/17 09:28:14;;;;;;;8.88;5.13;;;;;;;;;;5770447;28;20055;-79
2023/12/17 09:31:08;;;;;;;5.18;3.53;;;;;;;;;;5770336;28;20420;-78
2023/12/17 09:33:59;;;;;;;8.48;5.10;;;;;;;;;;5772130;28;20051;-79
2023/12/17 09:36:50;;;;;;;8.07;4.80;;;;;;;;;;5770403;28;20494;-79
2023/12/17 09:39:41;;;;;;;8.35;5.78;;;;;;;;;;5770794;28;20471;-79
2023/12/17 09:42:32;;;;;;;10.35;5.85;;;;;;;;;;5771479;28;20054;-79
2023/12/17 09:45:23;;;;;;;7.35;5.47;;;;;;;;;;5770034;28;20043;-79
2023/12/17 09:48:14;;;;;;;5.85;5.25;;;;;;;;;;5786062;28;20102;-79
2023/12/17 09:51:05;;;;;;;7.55;6.75;;;;;;;;;;5769939;28;20054;-79
2023/12/17 09:53:57;;;;;;;19.67;8.77;;;;;;;;;;5770698;28;20102;-79
2023/12/17 09:56:48;;;;;;;13.05;6.90;;;;;;;;;;5770004;28;20050;-79
2023/12/17 09:59:40;;;;;;;13.52;6.43;;;;;;;;;;5786045;28;20417;-78
2023/12/17 10:02:31;;;;;;;7.20;4.88;;;;;;;;;;5770399;28;20039;-79
2023/12/17 10:05:30;;;;;;;10.35;8.32;;;;;;;;;;5770340;28;20091;-79
2023/12/17 10:08:22;;;;;;;7.70;5.18;;;;;;;;;;5770136;28;20450;-79
2023/12/17 10:11:16;;;;;;;6.72;5.22;;;;;;;;;;5770149;28;20066;-78
2023/12/17 10:14:24;;;;;;;5.82;3.97;;;;;;;;;;5770033;28;20047;-79
2023/12/17 10:17:18;;;;;;;5.80;4.53;;;;;;;;;;5770090;28;20070;-79
2023/12/17 10:20:09;;;;;;;9.18;4.80;;;;;;;;;;5768151;28;20050;-79
2023/12/17 10:23:03;;;;;;;5.82;4.20;;;;;;;;;;5806957;28;20071;-79
2023/12/17 10:26:01;;;;;;;7.60;4.70;;;;;;;;;;5812892;28;20054;-79
2023/12/17 10:28:54;;;;;;;10.93;4.72;;;;;;;;;;5796329;28;20051;-79
2023/12/17 10:31:45;;;;;;;4.88;4.38;;;;;;;;;;5810714;28;20042;-79
2023/12/17 10:34:39;;;;;;;5.30;4.05;;;;;;;;;;5823190;28;20042;-79
2023/12/17 10:37:32;;;;;;;7.63;5.72;;;;;;;;;;5820437;28;20066;-79
2023/12/17 10:40:24;;;;;;;4.18;3.78;;;;;;;;;;5800682;28;20042;-79
2023/12/17 10:43:17;;;;;;;13.35;5.88;;;;;;;;;;5819611;28;20046;-78
2023/12/17 10:46:08;;;;;;;13.52;5.72;;;;;;;;;;5818756;28;20058;-79
2023/12/17 10:49:00;;;;;;;9.35;4.22;;;;;;;;;;5807878;28;20458;-79
2023/12/17 10:51:51;;;;;;;7.00;4.47;;;;;;;;;;5780061;28;20460;-79
2023/12/17 10:54:42;;;;;;;3.75;3.40;;;;;;;;;;5805723;28;20048;-79
2023/12/17 10:57:36;;;;;;;8.48;4.95;;;;;;;;;;5758315;28;20142;-79
2023/12/17 11:00:31;;;;;;;8.63;5.60;;;;;;;;;;5813072;28;20042;-79
2023/12/17 11:03:25;;;;;;;14.52;4.65;;;;;;;;;;5819027;28;20129;-79
2023/12/17 11:06:16;;;;;;;14.07;5.75;;;;;;;;;;5818367;28;20134;-79
2023/12/17 11:09:08;;;;;;;6.93;4.30;;;;;;;;;;5812434;28;20054;-80
2023/12/17 11:12:05;;;;;;;6.65;4.43;;;;;;;;;;5795816;28;20051;-79
2023/12/17 11:14:59;;;;;;;15.00;5.25;;;;;;;;;;5797406;28;20129;-79
2023/12/17 11:17:53;;;;;;;4.95;3.78;;;;;;;;;;5812479;28;20061;-79
2023/12/17 11:20:48;;;;;;;9.02;5.35;;;;;;;;;;5812696;28;20046;-79
2023/12/17 11:23:39;;;;;;;9.02;4.00;;;;;;;;;;5810534;28;20105;-79
2023/12/17 11:26:41;;;;;;;9.82;6.70;;;;;;;;;;5807397;28;20393;-79
2023/12/17 11:29:38;;;;;;;4.97;3.75;;;;;;;;;;5818782;28;20077;-79
2023/12/17 11:32:30;;;;;;;6.30;3.38;;;;;;;;;;5810922;28;20423;-79
2023/12/17 11:35:22;;;;;;;5.90;4.18;;;;;;;;;;5781460;28;20049;-80
2023/12/17 11:38:13;;;;;;;6.90;3.63;;;;;;;;;;5831487;28;20077;-79
2023/12/17 11:41:05;;;;;;;3.53;3.05;;;;;;;;;;5788961;28;20046;-79
2023/12/17 11:43:55;;;;;;;4.75;3.08;;;;;;;;;;5818676;28;20050;-79
2023/12/17 11:46:47;;;;;;;6.35;3.67;;;;;;;;;;5817193;28;20062;-79
2023/12/17 11:49:39;;;;;;;5.25;3.45;;;;;;;;;;5817721;28;20551;-79
2023/12/17 11:52:30;;;;;;;5.45;2.80;;;;;;;;;;5816577;28;20177;-79
2023/12/17 11:55:20;;;;;;;6.53;3.42;;;;;;;;;;5801666;28;20065;-80
2023/12/17 11:58:15;;;;;;;5.50;2.40;;;;;;;;;;5801572;28;20052;-79
2023/12/17 12:01:13;;;;;;;6.88;2.78;;;;;;;;;;5790550;28;20051;-79
2023/12/17 12:04:04;;;;;;;3.88;2.22;;;;;;;;;;5794814;28;20057;-79
2023/12/17 12:06:55;;;;;;;4.47;4.00;;;;;;;;;;5810201;28;20074;-79
2023/12/17 12:09:47;;;;;;;6.38;4.00;;;;;;;;;;5817095;28;20043;-79
2023/12/17 12:12:38;;;;;;;3.72;2.45;;;;;;;;;;5810406;28;20525;-78
2023/12/17 12:15:29;;;;;;;2.47;2.28;;;;;;;;;;5798800;28;20415;-79
2023/12/17 12:18:21;;;;;;;1.95;1.35;;;;;;;;;;5800918;28;20054;-79
2023/12/17 12:21:30;;;;;;;2.92;2.30;;;;;;;;;;5806724;28;20089;-79
2023/12/17 12:24:21;;;;;;;2.90;2.42;;;;;;;;;;5796206;28;20128;-80
2023/12/17 12:27:12;;;;;;;3.13;2.80;;;;;;;;;;5812047;28;20501;-79
2023/12/17 12:30:03;;;;;;;3.20;2.90;;;;;;;;;;5816533;28;20054;-79
2023/12/17 12:32:55;;;;;;;3.33;1.98;;;;;;;;;;5778529;28;20101;-80
2023/12/17 12:35:50;;;;;;;2.88;2.40;;;;;;;;;;5799803;28;20164;-80
2023/12/17 12:38:41;;;;;;;2.22;2.03;;;;;;;;;;5817085;28;20393;-80
2023/12/17 12:41:32;;;;;;;3.63;2.33;;;;;;;;;;5809827;28;20070;-80
2023/12/17 12:44:23;;;;;;;5.50;2.92;;;;;;;;;;5795578;28;20043;-80
2023/12/17 12:47:13;;;;;;;3.90;3.05;;;;;;;;;;5794989;28;20140;-80
2023/12/17 12:50:05;;;;;;;4.75;3.00;;;;;;;;;;5815594;28;20058;-79
2023/12/17 12:52:56;;;;;;;3.30;3.03;;;;;;;;;;5795685;28;20132;-79
2023/12/17 12:55:49;;;;;;;3.50;3.20;;;;;;;;;;5800579;28;20416;-80
2023/12/17 12:58:40;;;;;;;15.02;4.13;;;;;;;;;;5817753;28;20042;-79
2023/12/17 13:01:31;;;;;;;4.10;3.25;;;;;;;;;;5807217;28;20049;-80
2023/12/17 13:04:22;;;;;;;3.13;2.58;;;;;;;;;;5793779;28;20065;-79
2023/12/17 13:07:13;;;;;;;3.20;2.10;;;;;;;;;;5811149;28;20065;-79
2023/12/17 13:10:06;;;;;;;5.45;3.50;;;;;;;;;;5816318;28;20488;-79
2023/12/17 13:13:01;;;;;;;7.60;4.07;;;;;;;;;;5796366;28;20157;-79
2023/12/17 13:15:52;;;;;;;7.35;4.93;;;;;;;;;;5801074;28;20046;-79
2023/12/17 13:18:43;;;;;;;10.30;4.55;;;;;;;;;;5818201;28;20065;-79
2023/12/17 13:21:34;;;;;;;3.85;3.33;;;;;;;;;;5808810;28;20043;-79
2023/12/17 13:24:25;;;;;;;3.97;2.47;;;;;;;;;;5795044;28;20125;-79
2023/12/17 13:27:16;;;;;;;10.60;3.97;;;;;;;;;;5811800;28;20053;-79
2023/12/17 13:30:09;;;;;;;5.70;3.42;;;;;;;;;;5817647;28;20068;-79
2023/12/17 13:33:03;;;;;;;6.60;3.90;;;;;;;;;;5782986;28;20082;-79
2023/12/17 13:35:55;;;;;;;7.90;5.47;;;;;;;;;;5800622;28;20061;-79
2023/12/17 13:38:46;;;;;;;5.28;3.90;;;;;;;;;;5815689;28;20077;-79
2023/12/17 13:41:38;;;;;;;5.82;3.85;;;;;;;;;;5820309;28;20413;-79
2023/12/17 13:44:38;;;;;;;5.85;3.60;;;;;;;;;;5818449;28;20416;-79
2023/12/17 13:47:29;;;;;;;14.45;5.55;;;;;;;;;;5815904;28;20524;-79
2023/12/17 13:50:20;;;;;;;13.45;5.85;;;;;;;;;;5816147;28;20085;-79
2023/12/17 13:53:13;;;;;;;30.58;12.65;;;;;;;;;;5816393;28;20055;-79
2023/12/17 13:56:04;;;;;;;21.13;10.45;;;;;;;;;;5818038;28;20065;-79
2023/12/17 13:58:55;;;;;;;20.55;10.85;;;;;;;;;;5818428;28;20054;-79
2023/12/17 14:01:47;;;;;;;44.08;20.90;;;;;;;;;;5805661;28;20046;-79
2023/12/17 14:04:38;;;;;;;17.13;10.43;;;;;;;;;;5821425;28;20046;-79
2023/12/17 14:07:29;;;;;;;28.73;18.50;;;;;;;;;;5822702;28;20046;-79
2023/12/17 14:10:20;;;;;;;33.88;16.77;;;;;;;;;;5821607;28;20081;-79
2023/12/17 14:13:11;;;;;;;18.52;12.68;;;;;;;;;;5820591;28;20053;-79
2023/12/17 14:16:02;;;;;;;24.80;13.73;;;;;;;;;;5820897;28;20625;-79
2023/12/17 14:18:53;;;;;;;10.73;8.43;;;;;;;;;;5820477;28;20058;-79
2023/12/17 14:21:44;;;;;;;22.95;13.55;;;;;;;;;;5821232;28;20054;-79
2023/12/17 14:24:40;;;;;;;17.35;12.02;;;;;;;;;;5820941;28;20128;-80
2023/12/17 14:27:31;;;;;;;11.85;9.88;;;;;;;;;;5820660;28;20053;-79
2023/12/17 14:30:21;;;;;;;12.90;9.40;;;;;;;;;;5819393;28;20074;-79
2023/12/17 14:33:13;;;;;;;17.10;10.18;;;;;;;;;;5821079;28;20061;-79
2023/12/17 14:36:04;;;;;;;11.10;8.52;;;;;;;;;;5821438;28;20508;-79
2023/12/17 14:38:55;;;;;;;16.90;9.13;;;;;;;;;;5819527;28;20046;-79
2023/12/17 14:41:46;;;;;;;10.82;6.97;;;;;;;;;;5819358;28;20500;-79
2023/12/17 14:44:37;;;;;;;8.68;4.68;;;;;;;;;;5821590;28;20050;-79
2023/12/17 14:47:27;;;;;;;12.18;8.98;;;;;;;;;;5820296;28;20050;-79
2023/12/17 14:50:18;;;;;;;14.52;9.93;;;;;;;;;;5818240;28;20186;-79
2023/12/17 14:53:09;;;;;;;12.60;8.23;;;;;;;;;;5818847;28;20503;-79
2023/12/17 14:56:00;;;;;;;7.80;5.97;;;;;;;;;;5818944;28;20050;-79
2023/12/17 14:58:56;;;;;;;15.88;8.48;;;;;;;;;;5818636;28;20057;-79
2023/12/17 15:01:53;;;;;;;12.35;9.77;;;;;;;;;;5818886;28;20096;-79
2023/12/17 15:04:44;;;;;;;14.13;8.05;;;;;;;;;;5820686;28;20515;-79
2023/12/17 15:07:35;;;;;;;12.00;8.13;;;;;;;;;;5818525;28;20054;-79
2023/12/17 15:10:25;;;;;;;9.18;7.00;;;;;;;;;;5819016;28;20042;-79
2023/12/17 15:13:16;;;;;;;7.25;5.85;;;;;;;;;;5818474;28;20050;-79
2023/12/17 15:16:07;;;;;;;23.65;10.18;;;;;;;;;;5818417;28;20170;-79
2023/12/17 15:18:59;;;;;;;20.20;11.07;;;;;;;;;;5819929;28;20053;-79
2023/12/17 15:21:51;;;;;;;6.10;5.50;;;;;;;;;;5818649;28;20049;-79
2023/12/17 15:24:44;;;;;;;12.57;6.40;;;;;;;;;;5792856;28;20050;-79
2023/12/17 15:27:35;;;;;;;7.55;5.85;;;;;;;;;;5801347;28;20053;-79
2023/12/17 15:30:27;;;;;;;16.63;9.82;;;;;;;;;;5803030;28;20046;-79
2023/12/17 15:33:18;;;;;;;16.10;10.68;;;;;;;;;;5818980;28;20365;-79
2023/12/17 15:36:09;;;;;;;13.80;8.20;;;;;;;;;;5818671;28;20061;-79
2023/12/17 15:39:00;;;;;;;16.13;9.30;;;;;;;;;;5818658;28;20147;-79
2023/12/17 15:41:51;;;;;;;12.98;8.50;;;;;;;;;;5818265;28;20069;-79
2023/12/17 15:44:41;;;;;;;14.90;11.73;;;;;;;;;;5818222;28;20088;-79
2023/12/17 15:47:35;;;;;;;18.88;9.80;;;;;;;;;;5817556;28;20057;-79
2023/12/17 15:50:29;;;;;;;10.63;7.43;;;;;;;;;;5802513;28;20416;-79
2023/12/17 15:53:20;;;;;;;4.80;4.40;;;;;;;;;;5796174;28;20397;-79
2023/12/17 15:56:12;;;;;;;10.35;4.80;;;;;;;;;;5800828;28;20050;-79
2023/12/17 15:59:02;;;;;;;11.50;7.68;;;;;;;;;;5818367;28;20054;-79
2023/12/17 16:01:53;;;;;;;8.23;5.38;;;;;;;;;;5817303;28;20054;-79
2023/12/17 16:04:44;;;;;;;17.33;6.72;;;;;;;;;;5817105;28;20046;-79
2023/12/17 16:07:45;;;;;;;9.48;6.13;;;;;;;;;;5816860;28;20049;-79
2023/12/17 16:10:36;;;;;;;5.68;5.00;;;;;;;;;;5817115;28;20050;-79
2023/12/17 16:13:27;;;;;;;11.50;5.95;;;;;;;;;;5818041;28;20054;-79
2023/12/17 16:16:24;;;;;;;8.82;5.70;;;;;;;;;;5816623;28;20057;-79
2023/12/17 16:19:15;;;;;;;12.88;7.25;;;;;;;;;;5800702;28;20054;-79
2023/12/17 16:22:06;;;;;;;7.72;6.90;;;;;;;;;;5817917;28;20125;-79
2023/12/17 16:24:57;;;;;;;8.65;6.65;;;;;;;;;;5818588;28;20054;-79
2023/12/17 16:27:48;;;;;;;22.85;11.10;;;;;;;;;;5816631;28;20385;-79
2023/12/17 16:30:42;;;;;;;17.15;7.65;;;;;;;;;;5816534;28;20048;-79
2023/12/17 16:33:33;;;;;;;9.93;7.72;;;;;;;;;;5816318;28;20125;-79
2023/12/17 16:36:24;;;;;;;14.88;8.55;;;;;;;;;;5817586;28;20042;-79
2023/12/17 16:39:15;;;;;;;17.63;10.15;;;;;;;;;;5816312;28;20552;-79
2023/12/17 16:42:07;;;;;;;11.02;6.75;;;;;;;;;;5816129;28;20058;-79
2023/12/17 16:44:59;;;;;;;12.25;6.78;;;;;;;;;;5816487;28;20061;-79
2023/12/17 16:47:50;;;;;;;10.18;5.80;;;;;;;;;;5816327;28;20053;-79
2023/12/17 16:50:44;;;;;;;14.40;6.15;;;;;;;;;;5815943;28;20045;-79
2023/12/17 16:53:35;;;;;;;6.95;3.50;;;;;;;;;;5800277;28;20046;-79
2023/12/17 16:56:27;;;;;;;8.52;4.97;;;;;;;;;;5817079;28;20053;-79
2023/12/17 16:59:18;;;;;;;12.27;7.32;;;;;;;;;;5816056;28;20413;-79
2023/12/17 17:02:09;;;;;;;10.00;6.22;;;;;;;;;;5817166;28;20055;-79